Time;durP1;ratioP1;P1;durP2;ratioP2;P2;SDS_P1;SDS_P2;PMS_P1;PMS_P2;Temp;Humidity;BMP_temperature;BMP_pressure;BME280_temperature;BME280_humidity;BME280_pressure;Samples;Min_cycle;Max_cycle;Signal;HPM_P1;HPM_P2
2023/04/08 00:01:04;;;;;;;31.60;17.75;;;;;;;;;;5085706;28;20273;-71
2023/04/08 00:03:30;;;;;;;29.50;17.92;;;;;;;;;;5072388;28;20458;-72
2023/04/08 00:05:55;;;;;;;31.23;17.13;;;;;;;;;;5085421;28;20050;-71
2023/04/08 00:08:20;;;;;;;32.13;17.47;;;;;;;;;;5067505;28;20035;-71
2023/04/08 00:10:45;;;;;;;38.07;18.10;;;;;;;;;;5070670;28;20276;-71
2023/04/08 00:13:12;;;;;;;30.37;16.80;;;;;;;;;;5063681;28;20478;-71
2023/04/08 00:15:37;;;;;;;29.08;16.83;;;;;;;;;;5061490;28;20771;-71
2023/04/08 00:18:02;;;;;;;30.80;17.20;;;;;;;;;;5060502;28;20062;-71
2023/04/08 00:20:28;;;;;;;30.73;16.27;;;;;;;;;;5079863;28;20036;-71
2023/04/08 00:22:53;;;;;;;32.70;17.65;;;;;;;;;;5071462;28;20051;-70
2023/04/08 00:25:18;;;;;;;30.63;17.65;;;;;;;;;;5067307;28;20109;-71
2023/04/08 00:27:44;;;;;;;32.13;17.55;;;;;;;;;;5066574;28;20068;-74
2023/04/08 00:30:10;;;;;;;32.47;17.95;;;;;;;;;;5067542;28;20028;-71
2023/04/08 00:32:35;;;;;;;32.92;17.85;;;;;;;;;;5063933;28;20029;-71
2023/04/08 00:35:01;;;;;;;37.17;18.83;;;;;;;;;;5070887;28;20032;-71
2023/04/08 00:37:26;;;;;;;39.75;18.77;;;;;;;;;;5068112;28;20039;-72
2023/04/08 00:39:53;;;;;;;37.08;19.35;;;;;;;;;;5069699;28;20063;-71
2023/04/08 00:42:18;;;;;;;38.08;20.60;;;;;;;;;;5063951;28;20112;-71
2023/04/08 00:44:43;;;;;;;37.30;19.57;;;;;;;;;;5060821;28;20107;-71
2023/04/08 00:47:15;;;;;;;36.07;19.80;;;;;;;;;;5058775;28;20347;-71
2023/04/08 00:49:40;;;;;;;38.67;19.52;;;;;;;;;;5063834;28;20273;-71
2023/04/08 00:52:06;;;;;;;38.03;19.80;;;;;;;;;;5060309;28;20040;-71
2023/04/08 00:54:31;;;;;;;39.20;20.20;;;;;;;;;;5060317;28;20028;-71
2023/04/08 00:57:00;;;;;;;40.10;21.20;;;;;;;;;;5063255;28;20103;-71
2023/04/08 00:59:25;;;;;;;42.30;21.65;;;;;;;;;;5078912;28;20048;-70
2023/04/08 01:01:55;;;;;;;39.75;20.20;;;;;;;;;;5064415;28;20122;-71
2023/04/08 01:04:24;;;;;;;40.95;20.70;;;;;;;;;;5068323;28;20037;-72
2023/04/08 01:07:08;;;;;;;42.38;21.38;;;;;;;;;;5070819;28;20032;-71
2023/04/08 01:09:34;;;;;;;41.33;20.55;;;;;;;;;;5060330;28;20028;-71
2023/04/08 01:12:02;;;;;;;41.20;20.70;;;;;;;;;;5059527;28;20034;-71
2023/04/08 01:14:28;;;;;;;43.78;20.80;;;;;;;;;;5066189;28;20796;-71
2023/04/08 01:16:55;;;;;;;43.65;21.75;;;;;;;;;;5068642;28;20128;-71
2023/04/08 01:19:25;;;;;;;40.55;20.25;;;;;;;;;;5063283;28;20039;-71
2023/04/08 01:21:51;;;;;;;40.28;20.58;;;;;;;;;;5066061;28;20711;-71
2023/04/08 01:24:22;;;;;;;38.90;20.55;;;;;;;;;;5069834;28;20040;-71
2023/04/08 01:26:48;;;;;;;38.55;20.40;;;;;;;;;;5051170;28;20028;-71
2023/04/08 01:29:13;;;;;;;44.20;21.60;;;;;;;;;;5065043;28;20056;-71
2023/04/08 01:31:40;;;;;;;39.22;20.60;;;;;;;;;;5064723;28;20064;-71
2023/04/08 01:34:06;;;;;;;40.47;21.17;;;;;;;;;;5064850;28;20024;-73
2023/04/08 01:36:32;;;;;;;43.20;21.08;;;;;;;;;;5063106;28;20024;-72
2023/04/08 01:38:59;;;;;;;40.45;21.30;;;;;;;;;;5046731;28;20142;-72
2023/04/08 01:41:24;;;;;;;42.20;20.90;;;;;;;;;;5059960;28;20040;-72
2023/04/08 01:43:50;;;;;;;42.30;20.90;;;;;;;;;;5059410;28;20047;-71
2023/04/08 01:46:16;;;;;;;37.17;20.17;;;;;;;;;;5060329;28;20032;-70
2023/04/08 01:48:41;;;;;;;39.08;20.30;;;;;;;;;;5065777;28;20093;-72
2023/04/08 01:51:08;;;;;;;41.53;20.95;;;;;;;;;;5064310;28;20025;-71
2023/04/08 01:53:33;;;;;;;40.92;20.63;;;;;;;;;;5051015;28;20386;-70
2023/04/08 01:56:04;;;;;;;42.00;20.38;;;;;;;;;;5064964;28;20035;-71
2023/04/08 01:58:32;;;;;;;35.83;19.77;;;;;;;;;;5062253;28;20494;-71
2023/04/08 02:00:57;;;;;;;38.33;20.08;;;;;;;;;;5062800;28;20031;-70
2023/04/08 02:03:23;;;;;;;35.90;18.45;;;;;;;;;;5058955;28;20452;-71
2023/04/08 02:05:48;;;;;;;35.95;18.67;;;;;;;;;;5061499;28;20101;-71
2023/04/08 02:08:14;;;;;;;36.33;18.05;;;;;;;;;;5057716;28;20086;-71
2023/04/08 02:10:39;;;;;;;35.63;18.23;;;;;;;;;;5074587;28;20032;-71
2023/04/08 02:13:05;;;;;;;34.35;19.13;;;;;;;;;;5064269;28;20555;-70
2023/04/08 02:15:33;;;;;;;36.67;19.25;;;;;;;;;;5059806;28;20028;-71
2023/04/08 02:18:02;;;;;;;35.95;19.55;;;;;;;;;;5067586;28;20035;-71
2023/04/08 02:20:36;;;;;;;37.35;19.73;;;;;;;;;;5064273;28;20039;-69
2023/04/08 02:23:08;;;;;;;41.35;20.55;;;;;;;;;;5043915;28;20529;-71
2023/04/08 02:25:34;;;;;;;41.38;20.30;;;;;;;;;;5062163;28;20079;-71
2023/04/08 02:28:01;;;;;;;41.28;21.02;;;;;;;;;;5063028;28;20016;-71
2023/04/08 02:30:27;;;;;;;42.03;20.40;;;;;;;;;;5060487;28;20025;-71
2023/04/08 02:32:53;;;;;;;40.47;20.50;;;;;;;;;;5053996;28;20052;-71
2023/04/08 02:35:19;;;;;;;41.38;20.80;;;;;;;;;;5061699;28;20036;-71
2023/04/08 02:37:46;;;;;;;40.13;21.15;;;;;;;;;;5084642;28;20036;-72
2023/04/08 02:40:22;;;;;;;41.72;21.75;;;;;;;;;;5068688;28;20017;-71
2023/04/08 02:42:47;;;;;;;40.67;20.35;;;;;;;;;;5071090;28;20028;-71
2023/04/08 02:45:12;;;;;;;38.17;20.07;;;;;;;;;;5062843;28;20050;-72
2023/04/08 02:47:37;;;;;;;39.80;19.40;;;;;;;;;;5065128;28;20272;-71
2023/04/08 02:50:03;;;;;;;41.37;20.17;;;;;;;;;;5067276;28;20391;-71
2023/04/08 02:52:28;;;;;;;39.88;18.42;;;;;;;;;;5064411;28;20509;-71
2023/04/08 02:54:53;;;;;;;38.00;18.97;;;;;;;;;;5060807;28;20461;-71
2023/04/08 02:57:18;;;;;;;41.43;19.90;;;;;;;;;;5058033;28;20055;-71
2023/04/08 02:59:44;;;;;;;35.90;18.97;;;;;;;;;;5043541;28;20021;-71
2023/04/08 03:02:09;;;;;;;37.50;19.98;;;;;;;;;;5062552;28;20296;-71
2023/04/08 03:04:34;;;;;;;44.17;21.33;;;;;;;;;;5066403;28;20031;-70
2023/04/08 03:07:00;;;;;;;38.87;20.30;;;;;;;;;;5070237;28;20028;-70
2023/04/08 03:09:25;;;;;;;45.13;20.90;;;;;;;;;;5062901;28;20406;-70
2023/04/08 03:11:52;;;;;;;41.70;20.77;;;;;;;;;;5055350;28;20032;-72
2023/04/08 03:14:17;;;;;;;46.15;20.92;;;;;;;;;;5070345;28;20033;-71
2023/04/08 03:16:42;;;;;;;37.07;19.47;;;;;;;;;;5068746;28;20497;-71
2023/04/08 03:19:07;;;;;;;44.03;19.60;;;;;;;;;;5084201;28;20278;-71
2023/04/08 03:21:33;;;;;;;40.57;19.93;;;;;;;;;;5057046;28;20274;-72
2023/04/08 03:23:58;;;;;;;43.80;21.10;;;;;;;;;;5052678;28;20752;-70
2023/04/08 03:26:23;;;;;;;39.23;19.47;;;;;;;;;;5061039;28;20377;-71
2023/04/08 03:28:48;;;;;;;37.40;18.48;;;;;;;;;;5069800;28;20027;-71
2023/04/08 03:31:14;;;;;;;40.53;19.90;;;;;;;;;;5069512;28;20132;-72
2023/04/08 03:33:39;;;;;;;39.50;18.67;;;;;;;;;;5073889;28;20276;-71
2023/04/08 03:36:05;;;;;;;41.13;20.27;;;;;;;;;;5063916;28;20025;-71
2023/04/08 03:38:30;;;;;;;40.55;19.65;;;;;;;;;;5072897;28;20713;-71
2023/04/08 04:54:09;;;;;;;50.30;24.40;;;;;;;;;;5048546;28;20415;-70
2023/04/08 05:09:23;;;;;;;42.55;21.75;;;;;;;;;;5041524;28;20398;-75
2023/04/08 05:11:49;;;;;;;48.08;23.77;;;;;;;;;;5040150;28;20117;-71
2023/04/08 05:20:48;;;;;;;46.70;23.48;;;;;;;;;;5048285;28;20152;-70
2023/04/08 05:38:28;;;;;;;47.72;22.77;;;;;;;;;;5038557;28;20086;-74
2023/04/08 05:43:56;;;;;;;45.10;22.42;;;;;;;;;;5040423;28;20281;-74
2023/04/08 05:49:23;;;;;;;49.10;24.63;;;;;;;;;;5046202;28;20136;-75
2023/04/08 05:54:51;;;;;;;44.90;22.42;;;;;;;;;;5064526;28;20733;-75
2023/04/08 06:00:20;;;;;;;42.30;20.63;;;;;;;;;;5063832;28;20291;-75
2023/04/08 06:05:48;;;;;;;42.28;20.60;;;;;;;;;;5058489;28;20120;-78
2023/04/08 06:11:49;;;;;;;37.97;20.10;;;;;;;;;;5065907;28;20040;-76
2023/04/08 06:14:15;;;;;;;37.75;18.40;;;;;;;;;;5062222;28;20028;-73
2023/04/08 06:19:43;;;;;;;36.58;18.77;;;;;;;;;;5065438;28;20293;-75
2023/04/08 06:31:16;;;;;;;35.65;19.42;;;;;;;;;;5058485;28;20161;-76
2023/04/08 06:33:41;;;;;;;38.27;19.07;;;;;;;;;;5057454;28;20159;-76
2023/04/08 06:42:12;;;;;;;33.65;18.50;;;;;;;;;;5059862;28;20067;-75
2023/04/08 06:47:40;;;;;;;33.97;18.60;;;;;;;;;;5061845;28;20281;-75
2023/04/08 06:50:05;;;;;;;35.27;18.93;;;;;;;;;;5054767;28;20036;-76
2023/04/08 06:55:34;;;;;;;34.45;19.08;;;;;;;;;;5060091;28;20035;-75
2023/04/08 07:01:02;;;;;;;34.83;18.77;;;;;;;;;;5061460;28;20064;-74
2023/04/08 07:09:33;;;;;;;36.15;19.23;;;;;;;;;;5062802;28;20039;-73
2023/04/08 07:15:01;;;;;;;35.13;19.08;;;;;;;;;;5060656;28;20070;-74
2023/04/08 07:23:32;;;;;;;37.95;20.88;;;;;;;;;;5061190;28;20036;-77
2023/04/08 07:26:06;;;;;;;38.85;20.65;;;;;;;;;;5059323;28;20028;-77
2023/04/08 07:31:34;;;;;;;42.33;20.13;;;;;;;;;;5056513;28;20047;-77
2023/04/08 07:37:02;;;;;;;40.28;20.10;;;;;;;;;;5066656;28;20501;-77
2023/04/08 07:42:30;;;;;;;32.53;18.30;;;;;;;;;;5058249;28;20044;-77
2023/04/08 07:47:59;;;;;;;32.20;18.40;;;;;;;;;;5064009;28;20093;-77
2023/04/08 07:56:48;;;;;;;37.03;19.27;;;;;;;;;;5040004;28;20096;-77
2023/04/08 08:02:16;;;;;;;39.17;20.83;;;;;;;;;;5038074;28;20742;-78
2023/04/08 08:04:41;;;;;;;41.95;20.98;;;;;;;;;;5033789;28;20033;-78
2023/04/08 08:10:10;;;;;;;38.80;20.27;;;;;;;;;;5044998;28;20272;-77
2023/04/08 08:15:38;;;;;;;42.28;21.83;;;;;;;;;;5043637;28;20059;-78
2023/04/08 08:18:03;;;;;;;40.73;22.10;;;;;;;;;;5039407;28;20048;-80
2023/04/08 08:23:31;;;;;;;41.95;23.17;;;;;;;;;;5042750;28;20146;-78
2023/04/08 08:32:02;;;;;;;44.17;24.00;;;;;;;;;;5038619;28;20063;-74
2023/04/08 08:34:27;;;;;;;44.55;23.20;;;;;;;;;;5034459;28;20029;-77
2023/04/08 08:39:55;;;;;;;45.05;23.95;;;;;;;;;;5036858;28;20063;-74
2023/04/08 08:45:23;;;;;;;44.42;23.83;;;;;;;;;;5041559;28;20457;-75
2023/04/08 08:50:51;;;;;;;44.80;24.75;;;;;;;;;;5036694;28;20055;-74
2023/04/08 08:56:20;;;;;;;45.72;24.98;;;;;;;;;;5059470;28;20332;-74
2023/04/08 09:01:49;;;;;;;48.08;26.10;;;;;;;;;;5066836;28;20090;-73
2023/04/08 09:10:45;;;;;;;48.15;26.90;;;;;;;;;;5069179;28;20035;-72
2023/04/08 09:13:10;;;;;;;51.78;28.85;;;;;;;;;;5059418;28;20029;-72
2023/04/08 09:18:39;;;;;;;48.33;28.13;;;;;;;;;;5061455;28;20513;-70
2023/04/08 09:27:47;;;;;;;50.78;28.48;;;;;;;;;;5060224;28;20397;-73
2023/04/08 09:33:18;;;;;;;45.28;25.60;;;;;;;;;;5067063;28;20104;-73
2023/04/08 09:38:46;;;;;;;48.42;26.92;;;;;;;;;;5058298;28;20032;-75
2023/04/08 09:44:18;;;;;;;47.67;27.33;;;;;;;;;;5065085;28;20412;-76
2023/04/08 09:49:50;;;;;;;44.47;25.98;;;;;;;;;;5057667;28;20752;-74
2023/04/08 09:52:41;;;;;;;49.17;26.40;;;;;;;;;;5049013;28;20112;-75
2023/04/08 09:55:13;;;;;;;44.97;25.50;;;;;;;;;;5047824;28;20393;-75
2023/04/08 10:00:51;;;;;;;44.83;24.02;;;;;;;;;;5046829;28;20210;-75
2023/04/08 10:06:20;;;;;;;47.78;24.55;;;;;;;;;;5042020;28;20044;-74
2023/04/08 10:08:46;;;;;;;49.00;25.02;;;;;;;;;;5039524;28;20433;-74
2023/04/08 10:14:13;;;;;;;46.63;24.40;;;;;;;;;;5042875;28;20052;-73
2023/04/08 10:25:47;;;;;;;42.33;23.75;;;;;;;;;;5043653;28;20079;-74
2023/04/08 10:28:19;;;;;;;44.15;24.50;;;;;;;;;;5015535;28;20021;-73
2023/04/08 10:33:47;;;;;;;41.33;23.00;;;;;;;;;;5039382;28;20044;-74
2023/04/08 10:39:15;;;;;;;38.22;23.45;;;;;;;;;;5038524;28;20588;-73
2023/04/08 10:41:48;;;;;;;42.80;24.42;;;;;;;6.25;nan;101013.31;5046901;28;20029;-74
2023/04/08 10:44:18;;;;;;;38.33;23.00;;;;;;;;;;5043943;28;20378;-74
2023/04/08 10:52:49;;;;;;;35.08;22.02;;;;;;;;;;5047539;28;20127;-73
2023/04/08 10:58:18;;;;;;;41.47;24.20;;;;;;;;;;5058918;28;20079;-74
2023/04/08 11:00:43;;;;;;;39.35;23.92;;;;;;;;;;5037921;28;20048;-73
2023/04/08 11:06:11;;;;;;;38.42;23.23;;;;;;;;;;5062090;28;20470;-73
2023/04/08 11:11:43;;;;;;;37.35;22.58;;;;;;;;;;5070475;28;20063;-73
2023/04/08 11:14:09;;;;;;;38.95;23.00;;;;;;;;;;5060632;28;20020;-73
2023/04/08 11:19:38;;;;;;;38.97;22.95;;;;;;;;;;5060204;28;20040;-74
2023/04/08 11:25:08;;;;;;;38.33;23.30;;;;;;;;;;5063691;28;20095;-73
2023/04/08 11:30:38;;;;;;;33.88;21.90;;;;;;;;;;5056922;28;20086;-73
2023/04/08 11:36:07;;;;;;;36.85;21.63;;;;;;;;;;5070811;28;20123;-73
2023/04/08 11:44:38;;;;;;;32.53;20.15;;;;;;;;;;5065719;28;20074;-73
2023/04/08 11:53:15;;;;;;;36.17;21.20;;;;;;;;;;5064751;28;20106;-71
2023/04/08 11:55:40;;;;;;;33.00;20.40;;;;;;;;;;5058848;28;20032;-70
2023/04/08 12:01:08;;;;;;;34.58;21.38;;;;;;;;;;5065134;28;20314;-73
2023/04/08 12:18:49;;;;;;;32.92;20.42;;;;;;;;;;5061998;28;20035;-77
2023/04/08 12:27:20;;;;;;;34.80;20.70;;;;;;;;;;5066251;28;20130;-75
2023/04/08 12:39:00;;;;;;;35.83;20.60;;;;;;;;;;5059563;28;20110;-75
2023/04/08 12:53:36;;;;;;;47.60;31.63;;;;;;;;;;5069588;28;20083;-76
2023/04/08 12:59:04;;;;;;;36.80;23.10;;;;;;;;;;5069113;28;20043;-75
2023/04/08 13:01:30;;;;;;;41.78;24.90;;;;;;;;;;5061332;28;20009;-75
2023/04/08 13:06:59;;;;;;;34.17;20.50;;;;;;;;;;5063560;28;20085;-76
2023/04/08 13:24:39;;;;;;;35.42;21.33;;;;;;;;;;5065216;28;20071;-76
2023/04/08 13:27:30;;;;;;;38.30;21.87;;;;;;;;;;5053638;28;20429;-76
2023/04/08 13:29:55;;;;;;;36.10;21.48;;;;;;;;;;5068543;28;20028;-77
2023/04/08 13:41:29;;;;;;;34.60;21.27;;;;;;;;;;5057458;28;20040;-78
2023/04/08 13:43:55;;;;;;;36.93;20.73;;;;;;;;;;5060978;28;20458;-76
2023/04/08 13:58:51;;;;;;;38.33;23.45;;;;;;;;;;5041958;28;20055;-77
2023/04/08 14:04:19;;;;;;;35.58;21.85;;;;;;;;;;5037413;28;20351;-78
2023/04/08 14:06:45;;;;;;;30.42;19.35;;;;;;;;;;5024926;28;20014;-77
2023/04/08 14:15:16;;;;;;;33.55;19.33;;;;;;;;;;5040641;28;20044;-75
2023/04/08 14:21:11;;;;;;;31.48;19.42;;;;;;;;;;5039756;28;20095;-77
2023/04/08 14:26:39;;;;;;;38.05;22.83;;;;;;;;;;5037596;28;20036;-78
2023/04/08 14:38:14;;;;;;;65.78;35.85;;;;;;;;;;5036560;28;20032;-78
2023/04/08 14:43:42;;;;;;;50.75;27.50;;;;;;;;;;5035091;28;20044;-80
2023/04/08 14:46:08;;;;;;;180.57;80.40;;;;;;;;;;5032118;28;20378;-77
2023/04/08 14:51:36;;;;;;;44.40;24.95;;;;;;;;;;5037918;28;20846;-75
2023/04/08 14:54:27;;;;;;;49.60;27.75;;;;;;;;;;5034775;28;20032;-78
2023/04/08 15:00:27;;;;;;;34.30;19.92;;;;;;;;;;5034396;28;20042;-76
2023/04/08 15:06:29;;;;;;;32.42;20.23;;;;;;;;;;5036987;28;20107;-78
2023/04/08 15:08:55;;;;;;;32.63;20.33;;;;;;;;;;5017536;28;20040;-76
2023/04/08 15:17:26;;;;;;;31.38;19.67;;;;;;;;;;5039336;28;20136;-77
2023/04/08 15:22:54;;;;;;;36.30;21.02;;;;;;;;;;5040127;28;20084;-77
2023/04/08 15:34:28;;;;;;;35.67;20.13;;;;;;;;;;5036712;28;20049;-73
2023/04/08 15:39:56;;;;;;;37.42;20.50;;;;;;;;;;5034724;28;20060;-73
2023/04/08 15:54:37;;;;;;;31.63;19.00;;;;;;;;;;5039784;28;20075;-73
2023/04/08 16:03:10;;;;;;;34.25;20.42;;;;;;;;;;5042236;28;20032;-74
2023/04/08 16:14:45;;;;;;;35.55;21.80;;;;;;;;;;5048742;28;20035;-73
2023/04/08 16:17:10;;;;;;;36.33;21.70;;;;;;;;;;5041067;28;20048;-73
2023/04/08 16:22:39;;;;;;;33.83;20.38;;;;;;;;;;5046506;28;20033;-73
2023/04/08 16:31:10;;;;;;;36.65;21.73;;;;;;;;;;5042197;28;20036;-73
2023/04/08 16:33:36;;;;;;;34.80;21.52;;;;;;;;;;5030946;28;20025;-73
2023/04/08 16:39:03;;;;;;;35.75;21.90;;;;;;;;;;5045291;28;20047;-72
2023/04/08 16:47:47;;;;;;;38.40;23.73;;;;;;;;;;5047682;28;20043;-70
2023/04/08 16:50:12;;;;;;;52.13;30.10;;;;;;;;;;5043834;28;20030;-70
2023/04/08 16:52:38;;;;;;;59.15;31.60;;;;;;;;;;5046620;28;20507;-70
2023/04/08 16:55:03;;;;;;;61.05;34.47;;;;;;;;;;5056236;28;20457;-70
2023/04/08 16:57:28;;;;;;;57.92;31.30;;;;;;;;;;5060044;28;20510;-70
2023/04/08 16:59:54;;;;;;;60.10;33.72;;;;;;;;;;5066621;28;20056;-70
2023/04/08 17:02:20;;;;;;;52.97;30.20;;;;;;;;;;5065132;28;20061;-71
2023/04/08 17:04:49;;;;;;;51.60;30.00;;;;;;;;;;5069181;28;20060;-71
2023/04/08 17:07:14;;;;;;;49.67;28.30;;;;;;;;;;5043363;28;20033;-70
2023/04/08 17:09:39;;;;;;;48.47;26.25;;;;;;;;;;5065659;28;20027;-70
2023/04/08 17:12:05;;;;;;;45.17;25.90;;;;;;;;;;5049900;28;20040;-70
2023/04/08 17:14:30;;;;;;;47.90;26.90;;;;;;;;;;5057078;28;20466;-70
2023/04/08 17:16:55;;;;;;;45.77;26.50;;;;;;;;;;5059073;28;20039;-70
2023/04/08 17:19:21;;;;;;;46.90;25.90;;;;;;;;;;5061545;28;20851;-70
2023/04/08 17:21:46;;;;;;;42.50;25.40;;;;;;;;;;5067207;28;20040;-70
2023/04/08 17:24:11;;;;;;;44.87;25.53;;;;;;;;;;5065078;28;20101;-71
2023/04/08 17:26:39;;;;;;;47.00;27.87;;;;;;;;;;5066371;28;20900;-70
2023/04/08 17:29:04;;;;;;;52.20;27.45;;;;;;;;;;5062027;28;20276;-71
2023/04/08 17:31:30;;;;;;;44.67;26.58;;;;;;;;;;5065055;28;20028;-71
2023/04/08 17:33:55;;;;;;;42.17;24.58;;;;;;;;;;5064897;28;20494;-71
2023/04/08 17:36:20;;;;;;;43.80;23.33;;;;;;;;;;5045774;28;20664;-70
2023/04/08 17:38:48;;;;;;;39.17;23.07;;;;;;;;;;5060018;28;20313;-70
2023/04/08 17:41:13;;;;;;;42.90;24.90;;;;;;;;;;5056457;28;20029;-70
2023/04/08 17:43:38;;;;;;;52.38;27.70;;;;;;;;;;5062264;28;20539;-70
2023/04/08 17:46:03;;;;;;;41.13;25.57;;;;;;;;;;5061860;28;20024;-70
2023/04/08 17:48:29;;;;;;;48.40;27.60;;;;;;;;;;5061410;28;20028;-71
2023/04/08 17:50:58;;;;;;;56.88;29.92;;;;;;;;;;5064423;28;20024;-71
2023/04/08 17:53:23;;;;;;;51.67;28.67;;;;;;;;;;5048057;28;20422;-70
2023/04/08 17:55:48;;;;;;;57.70;30.13;;;;;;;;;;5069852;28;20374;-70
2023/04/08 17:58:13;;;;;;;59.03;31.47;;;;;;;;;;5060994;28;20261;-73
2023/04/08 18:00:39;;;;;;;51.93;29.43;;;;;;;;;;5048653;28;20363;-70
2023/04/08 18:03:04;;;;;;;53.08;29.90;;;;;;;;;;5061367;28;20698;-70
2023/04/08 18:05:30;;;;;;;55.35;30.25;;;;;;;;;;5063733;28;20028;-70
2023/04/08 18:07:57;;;;;;;56.58;31.80;;;;;;;7.09;nan;101015.50;5058688;28;20103;-70
2023/04/08 18:10:23;;;;;;;50.22;29.40;;;;;;;7.12;nan;101012.53;5060159;28;20032;-70
2023/04/08 18:12:48;;;;;;;50.83;28.13;;;;;;;7.10;nan;101017.94;5063882;28;20024;-70
2023/04/08 18:15:14;;;;;;;54.33;29.05;;;;;;;7.03;nan;101017.06;5064242;28;20048;-70
2023/04/08 18:17:40;;;;;;;53.22;30.05;;;;;;;7.01;nan;101019.03;5050510;28;20021;-69
2023/04/08 18:20:06;;;;;;;52.53;28.38;;;;;;;6.94;nan;101015.53;5063881;28;20043;-70
2023/04/08 18:22:31;;;;;;;47.53;27.60;;;;;;;6.88;nan;101014.50;5068004;28;20032;-70
2023/04/08 18:24:57;;;;;;;42.10;24.40;;;;;;;6.84;nan;101020.28;5065236;28;20393;-69
2023/04/08 18:27:22;;;;;;;38.15;23.45;;;;;;;6.82;nan;101020.44;5066969;28;20038;-70
2023/04/08 18:29:47;;;;;;;43.40;24.02;;;;;;;6.81;nan;101030.13;5042413;28;20545;-72
2023/04/08 18:32:13;;;;;;;38.22;23.42;;;;;;;6.78;nan;101024.47;5046517;28;20100;-70
2023/04/08 18:34:39;;;;;;;41.35;23.92;;;;;;;6.70;nan;101020.13;5061308;28;20036;-70
2023/04/08 18:37:04;;;;;;;40.05;22.70;;;;;;;6.72;nan;101033.84;5048617;28;20605;-70
2023/04/08 18:39:29;;;;;;;38.13;22.25;;;;;;;;;;5044421;28;20056;-70
2023/04/08 18:41:55;;;;;;;42.33;23.63;;;;;;;;;;5063571;28;20109;-69
2023/04/08 18:44:22;;;;;;;37.90;22.20;;;;;;;;;;5049176;28;20041;-70
2023/04/08 18:46:47;;;;;;;39.40;21.85;;;;;;;;;;5051466;28;20123;-70
2023/04/08 18:49:12;;;;;;;43.13;23.38;;;;;;;;;;5064926;28;20481;-70
2023/04/08 18:51:38;;;;;;;40.93;22.67;;;;;;;;;;5062526;28;20046;-69
2023/04/08 18:54:03;;;;;;;35.17;20.95;;;;;;;;;;5062176;28;20044;-70
2023/04/08 18:56:28;;;;;;;39.77;21.63;;;;;;;;;;5046797;28;20048;-70
2023/04/08 18:58:54;;;;;;;38.70;21.07;;;;;;;;;;5060995;28;20086;-69
2023/04/08 19:01:19;;;;;;;39.67;23.73;;;;;;;;;;5058066;28;20300;-70
2023/04/08 19:03:45;;;;;;;45.95;23.00;;;;;;;;;;5043733;28;20121;-70
2023/04/08 19:06:11;;;;;;;38.47;21.80;;;;;;;;;;5063298;28;20029;-70
2023/04/08 19:08:37;;;;;;;39.08;22.20;;;;;;;;;;5060168;28;20039;-70
2023/04/08 19:11:02;;;;;;;38.25;22.55;;;;;;;;;;5051060;28;20033;-70
2023/04/08 19:13:28;;;;;;;39.45;21.65;;;;;;;;;;5063017;28;20028;-71
2023/04/08 19:15:53;;;;;;;39.50;21.58;;;;;;;;;;5073595;28;20021;-71
2023/04/08 19:18:19;;;;;;;40.67;21.50;;;;;;;;;;5060960;28;20033;-70
2023/04/08 19:20:45;;;;;;;39.00;22.35;;;;;;;;;;5058001;28;20037;-71
2023/04/08 19:23:11;;;;;;;39.35;22.58;;;;;;;;;;5047250;28;20029;-71
2023/04/08 19:25:36;;;;;;;43.72;23.23;;;;;;;;;;5042424;28;20051;-71
2023/04/08 19:28:01;;;;;;;43.33;23.77;;;;;;;;;;5064896;28;20016;-71
2023/04/08 19:30:27;;;;;;;52.47;25.90;;;;;;;;;;5060715;28;20941;-71
2023/04/08 19:32:52;;;;;;;45.92;25.98;;;;;;;;;;5061224;28;20020;-71
2023/04/08 19:35:18;;;;;;;49.45;27.25;;;;;;;;;;5061464;28;20025;-71
2023/04/08 19:37:43;;;;;;;47.63;25.35;;;;;;;;;;5068413;28;20056;-71
2023/04/08 19:40:09;;;;;;;45.07;23.70;;;;;;;;;;5060728;28;20562;-71
2023/04/08 19:42:35;;;;;;;44.38;24.38;;;;;;;;;;5056612;28;20275;-70
2023/04/08 19:45:00;;;;;;;42.47;23.80;;;;;;;;;;5075341;28;20037;-70
2023/04/08 19:47:26;;;;;;;38.97;22.58;;;;;;;;;;5057465;28;20058;-70
2023/04/08 19:49:51;;;;;;;39.53;22.45;;;;;;;;;;5059427;28;20016;-71
2023/04/08 19:52:16;;;;;;;39.73;21.87;;;;;;;;;;5062372;28;20475;-70
2023/04/08 19:54:42;;;;;;;40.30;21.88;;;;;;;;;;5046389;28;20288;-71
2023/04/08 19:57:09;;;;;;;36.42;21.80;;;;;;;;;;5051871;28;20135;-70
2023/04/08 19:59:34;;;;;;;40.25;21.42;;;;;;;;;;5064965;28;20296;-71
2023/04/08 20:02:02;;;;;;;36.90;21.77;;;;;;;;;;5050955;28;20031;-71
2023/04/08 20:04:27;;;;;;;40.80;22.30;;;;;;;;;;5049067;28;20488;-70
2023/04/08 20:06:52;;;;;;;44.43;22.77;;;;;;;;;;5063379;28;20094;-70
2023/04/08 20:09:17;;;;;;;38.57;22.73;;;;;;;;;;5065303;28;20281;-69
2023/04/08 20:11:43;;;;;;;42.67;22.60;;;;;;;;;;5073938;28;20369;-69
2023/04/08 20:14:08;;;;;;;41.67;23.33;;;;;;;;;;5039433;28;20282;-69
2023/04/08 20:16:33;;;;;;;39.73;22.53;;;;;;;;;;5049901;28;20371;-69
2023/04/08 20:18:58;;;;;;;41.07;22.47;;;;;;;;;;5059833;28;20276;-69
2023/04/08 20:21:25;;;;;;;38.95;22.13;;;;;;;;;;5047370;28;20134;-69
2023/04/08 20:23:50;;;;;;;40.08;22.17;;;;;;;;;;5063369;28;20425;-69
2023/04/08 20:26:16;;;;;;;37.63;21.48;;;;;;;;;;5062243;28;20121;-69
2023/04/08 20:28:42;;;;;;;39.55;22.27;;;;;;;;;;5043601;28;20027;-69
2023/04/08 20:31:08;;;;;;;42.17;23.23;;;;;;;;;;5049014;28;20112;-69
2023/04/08 20:33:33;;;;;;;37.17;22.08;;;;;;;;;;5061705;28;20107;-69
2023/04/08 20:35:59;;;;;;;41.65;21.90;;;;;;;;;;5067306;28;20492;-69
2023/04/08 20:38:25;;;;;;;38.00;21.27;;;;;;;;;;5060424;28;20024;-69
2023/04/08 20:40:50;;;;;;;40.88;22.27;;;;;;;;;;5064286;28;20411;-69
2023/04/08 20:43:15;;;;;;;38.83;22.37;;;;;;;;;;5063727;28;20131;-69
2023/04/08 20:45:41;;;;;;;40.42;21.85;;;;;;;;;;5066756;28;20277;-69
2023/04/08 20:48:06;;;;;;;36.25;21.48;;;;;;;;;;5059075;28;20044;-69
2023/04/08 20:50:32;;;;;;;38.42;21.75;;;;;;;;;;5069633;28;20028;-69
2023/04/08 20:52:57;;;;;;;38.28;21.08;;;;;;;;;;5048026;28;20029;-69
2023/04/08 20:55:23;;;;;;;37.17;20.33;;;;;;;;;;5068837;28;20606;-69
2023/04/08 20:57:48;;;;;;;42.05;22.83;;;;;;;;;;5062656;28;20032;-69
2023/04/08 21:00:14;;;;;;;44.78;23.23;;;;;;;;;;5058425;28;20375;-69
2023/04/08 21:02:40;;;;;;;49.47;26.45;;;;;;;;;;5064769;28;20024;-68
2023/04/08 21:05:05;;;;;;;58.00;30.13;;;;;;;;;;5066442;28;20051;-69
2023/04/08 21:07:30;;;;;;;63.72;32.47;;;;;;;;;;5066498;28;20028;-67
2023/04/08 21:09:56;;;;;;;60.97;31.60;;;;;;;;;;5038765;28;20039;-66
2023/04/08 21:12:21;;;;;;;54.20;29.13;;;;;;;;;;5039515;28;20280;-69
2023/04/08 21:14:46;;;;;;;50.90;25.55;;;;;;;;;;5061306;28;20028;-67
2023/04/08 21:17:12;;;;;;;48.23;24.93;;;;;;;;;;5064740;28;20028;-66
2023/04/08 21:19:38;;;;;;;47.50;25.45;;;;;;;;;;5061969;28;20411;-66
2023/04/08 21:22:03;;;;;;;48.17;24.65;;;;;;;;;;5049467;28;20044;-67
2023/04/08 21:24:28;;;;;;;40.10;22.33;;;;;;;;;;5052054;28;20553;-67
2023/04/08 21:26:54;;;;;;;39.53;21.80;;;;;;;;;;5061839;28;20410;-67
2023/04/08 21:29:20;;;;;;;38.08;20.27;;;;;;;;;;5052535;28;20147;-66
2023/04/08 21:31:45;;;;;;;39.80;21.38;;;;;;;;;;5071099;28;20024;-67
2023/04/08 21:34:12;;;;;;;43.95;23.17;;;;;;;;;;5070530;28;20057;-68
2023/04/08 21:36:37;;;;;;;43.90;23.45;;;;;;;;;;5050179;28;20405;-67
2023/04/08 21:39:02;;;;;;;53.87;25.13;;;;;;;;;;5049460;28;20033;-66
2023/04/08 21:41:28;;;;;;;47.92;25.08;;;;;;;;;;5057042;28;20028;-66
2023/04/08 21:43:53;;;;;;;45.28;23.33;;;;;;;;;;5064059;28;20389;-66
2023/04/08 21:46:18;;;;;;;41.22;22.92;;;;;;;;;;5045827;28;20087;-66
2023/04/08 21:48:44;;;;;;;36.78;21.08;;;;;;;;;;5064108;28;20025;-67
2023/04/08 21:51:13;;;;;;;36.05;19.45;;;;;;;;;;5062692;28;20020;-68
2023/04/08 21:53:38;;;;;;;34.72;20.27;;;;;;;;;;5070827;28;20028;-66
2023/04/08 21:56:05;;;;;;;36.13;19.33;;;;;;;;;;5063997;28;20048;-66
2023/04/08 21:58:30;;;;;;;35.03;19.80;;;;;;;;;;5063169;28;20075;-67
2023/04/08 22:00:56;;;;;;;36.67;20.47;;;;;;;;;;5067527;28;20094;-69
2023/04/08 22:03:21;;;;;;;33.97;19.75;;;;;;;;;;5047777;28;20273;-69
2023/04/08 22:05:46;;;;;;;34.28;19.48;;;;;;;;;;5048499;28;20122;-69
2023/04/08 22:08:11;;;;;;;37.70;20.40;;;;;;;;;;5061836;28;20028;-67
2023/04/08 22:10:37;;;;;;;37.65;19.90;;;;;;;;;;5056714;28;20261;-69
2023/04/08 22:13:02;;;;;;;37.57;19.50;;;;;;;;;;5056426;28;20024;-70
2023/04/08 22:15:27;;;;;;;37.83;20.48;;;;;;;;;;5060324;28;20807;-70
2023/04/08 22:17:53;;;;;;;33.57;20.17;;;;;;;;;;5060927;28;20028;-70
2023/04/08 22:20:18;;;;;;;32.50;19.03;;;;;;;;;;5049900;28;20284;-70
2023/04/08 22:22:43;;;;;;;36.37;19.77;;;;;;;;;;5061608;28;20646;-70
2023/04/08 22:25:09;;;;;;;36.23;19.83;;;;;;;;;;5066562;28;20398;-70
2023/04/08 22:27:35;;;;;;;36.75;19.45;;;;;;;;;;5044337;28;20397;-70
2023/04/08 22:30:00;;;;;;;33.33;19.65;;;;;;;;;;5061137;28;20142;-69